This is the latest recevied weather packets stored in our database for station/object N5LSN. If no packets are shown the sender has not sent any weather packets the latest 10 day(s).
| Time | Temp. | Humidity | Pressure | Rain* | Wind** | Luminosity | Snow |
|---|---|---|---|---|---|---|---|
| 1777835448 | 25° C | 43% | 1019.1 hPa | 0 mm | - | 920 W/m² | - |
| 1777835139 | 24.44° C | 43% | 1019.1 hPa | 0 mm | - | 927 W/m² | - |
| 1777834836 | 23.89° C | 44% | 1019.2 hPa | 0 mm | - | 932 W/m² | - |
| 1777834533 | 23.89° C | 44% | 1019.3 hPa | 0 mm | - | 937 W/m² | - |
| 1777834227 | 23.89° C | 44% | 1019.4 hPa | 0 mm | - | 943 W/m² | - |
| 1777833924 | 23.89° C | 43% | 1019.7 hPa | 0 mm | - | 946 W/m² | - |
| 1777833620 | 23.89° C | 44% | 1019.8 hPa | 0 mm | - | 946 W/m² | - |
| 1777833317 | 23.89° C | 43% | 1019.6 hPa | 0 mm | - | 950 W/m² | - |
| 1777833014 | 23.89° C | 45% | 1019.8 hPa | 0 mm | - | 953 W/m² | - |
| 1777832712 | 23.89° C | 43% | 1019.8 hPa | 0 mm | - | 955 W/m² | - |
| 1777832410 | 23.89° C | 49% | 1019.9 hPa | 0 mm | - | 957 W/m² | - |
| 1777832107 | 23.33° C | 42% | 1020 hPa | 0 mm | - | 960 W/m² | - |
| 1777831803 | 23.89° C | 45% | 1020.2 hPa | 0 mm | - | 960 W/m² | - |
| 1777831500 | 23.33° C | 45% | 1020.3 hPa | 0 mm | - | 961 W/m² | - |
| 1777831197 | 23.89° C | 48% | 1020.2 hPa | 0 mm | - | 962 W/m² | - |
| 1777830895 | 23.89° C | 46% | 1020.4 hPa | 0 mm | - | 961 W/m² | - |
| 1777830591 | 22.78° C | 46% | 1020.5 hPa | 0 mm | - | 964 W/m² | - |
| 1777830289 | 22.78° C | 48% | 1020.6 hPa | 0 mm | - | 960 W/m² | - |
| 1777829984 | 22.78° C | 48% | 1020.6 hPa | 0 mm | - | 958 W/m² | - |
| 1777829680 | 22.22° C | 47% | 1020.6 hPa | 0 mm | - | 957 W/m² | - |
| 1777829377 | 22.78° C | 52% | 1020.9 hPa | 0 mm | - | 955 W/m² | - |
| 1777829075 | 22.22° C | 49% | 1020.9 hPa | 0 mm | - | 952 W/m² | - |
| 1777828771 | 21.67° C | 49% | 1020.9 hPa | 0 mm | - | 948 W/m² | - |
| 1777828468 | 21.67° C | 52% | 1021.2 hPa | 0 mm | - | 944 W/m² | - |
| 1777828165 | 21.11° C | 50% | 1021.3 hPa | 0 mm | - | 940 W/m² | - |
* Rain latest hour (hover to see other rain measurements)
** Current wind speed in m/s (hover to see current wind gust speed)